Prevelis — SYDL — position and weather

sailwx.info

Track history (hours):
 
Tides and Currents Weather Stations Pressure Air Temp Water Temp Dewpoint Dewpoint Depression Visibility Wind Speed Wind Dir Waves Ship Positions

Prevelis

Last reported at 2016-Jul-29 17:33 UTC. Time now 2016-Jul-30 01:59 UTC.
Position N 37°24' E 023°55'.

Length 143 m; draft 5.5 m.

Type: Passenger vessel. MMSI: 239297000.

Date/timePositionNaut miles runAvg speedWind from/ knotsBaromVisibWave heightAir tempDewpointWater temp
2016-Jul-29 17:33N 37°24' E 023°55'1716.9
2016-Jul-29 16:33N 37°38' E 023°44'1716.9
2016-Jul-29 15:34N 37°54' E 023°37'3 2.9
2016-Jul-29 14:33N 37°57' E 023°38'0 0.0
2016-Jul-29 13:33N 37°57' E 023°38'0 0.0
2016-Jul-29 12:33N 37°57' E 023°38'0 0.0
2016-Jul-29 11:33N 37°57' E 023°38'0 0.0
2016-Jul-29 10:33N 37°57' E 023°38'0 0.0
2016-Jul-29 09:33N 37°57' E 023°38'0 0.0
2016-Jul-29 08:33N 37°57' E 023°38'0 0.0
2016-Jul-29 07:33N 37°57' E 023°38'0 0.0
2016-Jul-29 06:33N 37°57' E 023°38'0 0.0
2016-Jul-29 05:33N 37°57' E 023°38'2 2.0
2016-Jul-29 04:33N 37°55' E 023°37'1111.1
2016-Jul-29 03:33N 37°45' E 023°43'1717.5
2016-Jul-29 02:34N 37°31' E 023°56'  
2016-Jul-25 18:22N 37°20' E 024°08'1516.8
2016-Jul-25 17:30N 37°31' E 023°56'1617.1
2016-Jul-25 16:33N 37°42' E 023°42'1514.7
2016-Jul-25 15:34N 37°57' E 023°38'0 0.1
2016-Jul-25 14:33N 37°57' E 023°38'0 0.0
2016-Jul-25 13:34N 37°57' E 023°38'0 0.0
2016-Jul-25 12:34N 37°57' E 023°38'6 6.1
2016-Jul-25 11:33N 37°51' E 023°39'1717.2
2016-Jul-25 10:33N 37°35' E 023°48'2016.8
2016-Jul-25 09:23N 37°17' E 023°59'  
2016-Jul-23 00:26N 36°47' E 024°29'3210.0
2016-Jul-22 21:17N 37°11' E 024°03'1317.2
2016-Jul-22 20:33N 37°22' E 023°55'1717.4
2016-Jul-22 19:34N 37°37' E 023°44'1716.8
2016-Jul-22 18:34N 37°53' E 023°37'4 4.0
2016-Jul-22 17:33N 37°57' E 023°38'0 0.0
2016-Jul-22 16:33N 37°57' E 023°38'0 0.3
2016-Jul-22 15:34N 37°57' E 023°38'4 3.8
2016-Jul-22 14:33N 37°58' E 023°34'0 0.0
2016-Jul-22 13:33N 37°58' E 023°34'0 0.0
2016-Jul-22 12:33N 37°58' E 023°34'0 0.0
2016-Jul-22 11:34N 37°58' E 023°34'0 0.0
2016-Jul-22 10:33N 37°58' E 023°34'0 0.0
2016-Jul-22 09:34N 37°58' E 023°34'0 0.0
2016-Jul-22 08:33N 37°58' E 023°34'4 3.8
2016-Jul-22 07:33N 37°57' E 023°38'0 0.2
2016-Jul-22 05:33N 37°57' E 023°38'1413.8
2016-Jul-22 04:33N 37°43' E 023°43'1716.6
2016-Jul-22 03:32N 37°30' E 023°57'  
Track history (hours):
 
Tides and Currents Weather Stations Pressure Air Temp Water Temp Dewpoint Dewpoint Depression Visibility Wind Speed Wind Dir Waves Ship Positions

Prevelis

Last reported at 2016-Jul-29 17:33 UTC. Time now 2016-Jul-30 01:59 UTC.
Position N 37°24' E 023°55'.

Length 143 m; draft 5.5 m.

Type: Passenger vessel. MMSI: 239297000.

Date/timePositionNaut miles runAvg speedWind from/ knotsBaromVisibWave heightAir tempDewpointWater temp
2016-Jul-29 17:33N 37°24' E 023°55'1716.9
2016-Jul-29 16:33N 37°38' E 023°44'1716.9
2016-Jul-29 15:34N 37°54' E 023°37'3 2.9
2016-Jul-29 14:33N 37°57' E 023°38'0 0.0
2016-Jul-29 13:33N 37°57' E 023°38'0 0.0
2016-Jul-29 12:33N 37°57' E 023°38'0 0.0
2016-Jul-29 11:33N 37°57' E 023°38'0 0.0
2016-Jul-29 10:33N 37°57' E 023°38'0 0.0
2016-Jul-29 09:33N 37°57' E 023°38'0 0.0
2016-Jul-29 08:33N 37°57' E 023°38'0 0.0
2016-Jul-29 07:33N 37°57' E 023°38'0 0.0
2016-Jul-29 06:33N 37°57' E 023°38'0 0.0
2016-Jul-29 05:33N 37°57' E 023°38'2 2.0
2016-Jul-29 04:33N 37°55' E 023°37'1111.1
2016-Jul-29 03:33N 37°45' E 023°43'1717.5
2016-Jul-29 02:34N 37°31' E 023°56'  
2016-Jul-25 18:22N 37°20' E 024°08'1516.8
2016-Jul-25 17:30N 37°31' E 023°56'1617.1
2016-Jul-25 16:33N 37°42' E 023°42'1514.7
2016-Jul-25 15:34N 37°57' E 023°38'0 0.1
2016-Jul-25 14:33N 37°57' E 023°38'0 0.0
2016-Jul-25 13:34N 37°57' E 023°38'0 0.0
2016-Jul-25 12:34N 37°57' E 023°38'6 6.1
2016-Jul-25 11:33N 37°51' E 023°39'1717.2
2016-Jul-25 10:33N 37°35' E 023°48'2016.8
2016-Jul-25 09:23N 37°17' E 023°59'  
2016-Jul-23 00:26N 36°47' E 024°29'3210.0
2016-Jul-22 21:17N 37°11' E 024°03'1317.2
2016-Jul-22 20:33N 37°22' E 023°55'1717.4
2016-Jul-22 19:34N 37°37' E 023°44'1716.8
2016-Jul-22 18:34N 37°53' E 023°37'4 4.0
2016-Jul-22 17:33N 37°57' E 023°38'0 0.0
2016-Jul-22 16:33N 37°57' E 023°38'0 0.3
2016-Jul-22 15:34N 37°57' E 023°38'4 3.8
2016-Jul-22 14:33N 37°58' E 023°34'0 0.0
2016-Jul-22 13:33N 37°58' E 023°34'0 0.0
2016-Jul-22 12:33N 37°58' E 023°34'0 0.0
2016-Jul-22 11:34N 37°58' E 023°34'0 0.0
2016-Jul-22 10:33N 37°58' E 023°34'0 0.0
2016-Jul-22 09:34N 37°58' E 023°34'0 0.0
2016-Jul-22 08:33N 37°58' E 023°34'4 3.8
2016-Jul-22 07:33N 37°57' E 023°38'0 0.2
2016-Jul-22 05:33N 37°57' E 023°38'1413.8
2016-Jul-22 04:33N 37°43' E 023°43'1716.6
2016-Jul-22 03:32N 37°30' E 023°57'  

Dump ship's entire track history